SNCO2: N. Canadian River at Shawnee, OK

Data processed at Fri May 24 2019 23:50


All information presented herein is the property of the government of the United States of America and may be revised or deleted at any time without prior notice.
Dissemination of this information without the expressed written consent of the Public Affairs Office, Tulsa District U.S. Army Corps of Engineers is strictly prohibited.
These data are gathered electronically and, as presented, have not undergone any form of quality control. These data are not guaranteed to be valid or correct.
Go to home page.
Go to station list.
Go to home page.

Upstream stations:

Downstream station:
Previous Day
Next Day
Current Day
    
SHEF ID:       SNCO2     North Canadian River at Shawnee,
STATION TYPE:  

                STAGE  RIV-FLOW  BAT-LOAD
                   ft       cfs      volt
              Ccp-Rev   Ccp-Rev   Ccp-Rev
(US/Central)
05/24 00:00     22.06     18793     12.83
05/24 01:00     21.92     17401     12.83
05/24 02:00     21.85     16739     12.77
05/24 03:00     21.95     17691     12.77
05/24 04:00     21.99     18085     12.77
05/24 05:00     21.95     17691     12.77
05/24 06:00     21.92     17401     12.71
05/24 07:00     21.85     16739     12.71
05/24 08:00     21.77     16009     13.12
05/24 09:00     21.71     15479     13.42
05/24 10:00     21.87     16926     13.48
05/24 11:00     21.88     17020     13.59
05/24 12:00     21.81     16370     13.36
05/24 13:00     21.83     16554     13.59
05/24 14:00     21.79     16189     14.12
05/24 15:00     21.84     16646     13.30
05/24 16:00     21.77     16009     13.36
05/24 17:00     21.81     16370     13.30
05/24 18:00     21.83     16554     13.36
05/24 19:00     21.82     16462     13.18
05/24 20:00     21.88     17020     12.95
05/24 21:00     21.77     16009     12.89
05/24 22:00     21.76     15919     12.83
05/24 23:00      ----      ----      ----